createdAt,value
2018-08-14T00:00:19.578Z,996.76
2018-08-14T00:01:19.546Z,996.79
2018-08-14T00:03:12.406Z,996.77
2018-08-14T00:04:12.360Z,996.82
2018-08-14T00:06:05.214Z,996.78
2018-08-14T00:07:05.157Z,996.81
2018-08-14T00:08:58.016Z,996.80
2018-08-14T00:09:57.967Z,996.82
2018-08-14T00:11:50.827Z,996.81
2018-08-14T00:12:50.769Z,996.80
2018-08-14T00:14:43.604Z,996.81
2018-08-14T00:15:43.572Z,996.78
2018-08-14T00:17:36.435Z,996.85
2018-08-14T00:18:36.385Z,996.90
2018-08-14T00:20:29.215Z,996.96
2018-08-14T00:21:29.186Z,996.92
2018-08-14T00:23:22.047Z,996.89
2018-08-14T00:24:21.994Z,997.00
2018-08-14T00:26:14.854Z,996.94
2018-08-14T00:27:14.797Z,996.96
2018-08-14T00:29:07.640Z,996.96
2018-08-14T00:30:07.603Z,996.95
2018-08-14T00:32:00.466Z,996.90
2018-08-14T00:33:00.410Z,996.92
2018-08-14T00:34:53.247Z,996.91
2018-08-14T00:35:53.213Z,996.88
2018-08-14T00:37:46.076Z,996.82
2018-08-14T00:38:46.024Z,996.83
2018-08-14T00:40:38.864Z,996.85
2018-08-14T00:41:38.832Z,996.80
2018-08-14T00:43:31.703Z,996.84
2018-08-14T00:44:31.635Z,996.85
2018-08-14T00:46:24.469Z,996.86
2018-08-14T00:47:24.443Z,996.94
2018-08-14T00:49:17.299Z,996.93
2018-08-14T00:50:17.241Z,996.87
2018-08-14T00:52:10.110Z,996.86
2018-08-14T00:53:10.049Z,996.86
2018-08-14T00:55:02.890Z,996.80
2018-08-14T00:56:02.856Z,996.80
2018-08-14T00:57:55.744Z,996.83
2018-08-14T00:58:55.692Z,996.80
2018-08-14T00:59:55.670Z,996.81
2018-08-14T01:00:55.643Z,996.82
2018-08-14T01:01:55.616Z,996.80
2018-08-14T01:02:55.601Z,996.79
2018-08-14T01:03:55.563Z,996.78
2018-08-14T01:04:55.541Z,996.77
2018-08-14T01:05:55.515Z,996.82
2018-08-14T01:06:55.491Z,996.86
2018-08-14T01:07:55.465Z,996.75
2018-08-14T01:08:55.440Z,996.78
2018-08-14T01:09:55.417Z,996.82
2018-08-14T01:10:55.382Z,996.81
2018-08-14T01:11:55.365Z,996.80
2018-08-14T01:12:55.333Z,996.85
2018-08-14T01:13:55.318Z,996.83
2018-08-14T01:15:02.263Z,996.82
2018-08-14T01:15:55.259Z,996.87
2018-08-14T01:16:55.238Z,996.87
2018-08-14T01:17:55.209Z,996.84
2018-08-14T01:18:55.182Z,996.85
2018-08-14T01:19:55.164Z,996.79
2018-08-14T01:20:55.125Z,996.81
2018-08-14T01:21:55.104Z,996.81
2018-08-14T01:22:55.085Z,996.72
2018-08-14T01:23:55.161Z,996.76
2018-08-14T01:24:55.026Z,996.76
2018-08-14T01:25:55.009Z,996.76
2018-08-14T01:26:54.973Z,996.77
2018-08-14T01:27:54.950Z,996.79
2018-08-14T01:28:54.928Z,996.75
2018-08-14T01:29:54.902Z,996.75
2018-08-14T01:30:54.871Z,996.74
2018-08-14T01:31:54.848Z,996.75
2018-08-14T01:32:54.827Z,996.77
2018-08-14T01:33:54.791Z,996.77
2018-08-14T01:34:54.777Z,996.78
2018-08-14T01:35:54.748Z,996.73
2018-08-14T01:36:54.719Z,996.73
2018-08-14T01:37:54.697Z,996.75
2018-08-14T01:38:54.662Z,996.76
2018-08-14T01:39:54.647Z,996.77
2018-08-14T01:40:54.616Z,996.72
2018-08-14T01:41:54.587Z,996.72
2018-08-14T01:42:54.570Z,996.80
2018-08-14T01:43:54.537Z,996.83
2018-08-14T01:44:54.519Z,996.84
2018-08-14T01:45:54.485Z,996.80
2018-08-14T01:46:54.468Z,996.82
2018-08-14T01:47:54.439Z,996.80
2018-08-14T01:48:54.413Z,996.85
2018-08-14T01:49:54.389Z,996.88
2018-08-14T01:50:54.356Z,996.93
2018-08-14T01:51:54.334Z,996.87
2018-08-14T01:52:54.314Z,996.90
2018-08-14T01:53:54.286Z,996.98
2018-08-14T01:54:54.258Z,996.90
2018-08-14T01:55:54.234Z,996.85
2018-08-14T01:56:54.204Z,996.82
2018-08-14T01:57:54.186Z,996.82
2018-08-14T01:58:54.152Z,996.87
2018-08-14T01:59:54.134Z,996.92
2018-08-14T02:00:54.100Z,996.85
2018-08-14T02:01:54.081Z,996.87
2018-08-14T02:02:54.050Z,996.83
2018-08-14T02:03:54.034Z,996.85
2018-08-14T02:04:54.005Z,996.92
2018-08-14T02:05:53.970Z,996.91
2018-08-14T02:06:53.955Z,996.89
2018-08-14T02:07:53.926Z,996.87
2018-08-14T02:08:53.903Z,996.94
2018-08-14T02:09:53.869Z,996.89
2018-08-14T02:10:53.851Z,996.87
2018-08-14T02:11:53.824Z,996.90
2018-08-14T02:12:53.791Z,996.87
2018-08-14T02:13:53.766Z,996.84
2018-08-14T02:14:53.748Z,996.87
2018-08-14T02:15:53.718Z,996.92
2018-08-14T02:16:53.694Z,996.92
2018-08-14T02:17:53.666Z,996.89
2018-08-14T02:18:53.638Z,996.91
2018-08-14T02:19:53.616Z,996.88
2018-08-14T02:20:53.593Z,996.92
2018-08-14T02:21:53.562Z,996.99
2018-08-14T02:22:53.544Z,996.89
2018-08-14T02:23:53.510Z,996.94
2018-08-14T02:24:53.489Z,996.90
2018-08-14T02:25:53.461Z,996.92
2018-08-14T02:26:53.430Z,996.92
2018-08-14T02:27:53.407Z,996.94
2018-08-14T02:28:53.385Z,996.94
2018-08-14T02:29:53.355Z,996.94
2018-08-14T02:30:53.332Z,996.89
2018-08-14T02:31:53.309Z,996.92
2018-08-14T02:32:53.282Z,996.84
2018-08-14T02:33:53.258Z,996.93
2018-08-14T02:34:53.227Z,996.91
2018-08-14T02:35:53.198Z,996.91
2018-08-14T02:36:53.181Z,996.95
2018-08-14T02:37:53.146Z,996.90
2018-08-14T02:38:53.131Z,996.92
2018-08-14T02:39:53.097Z,996.93
2018-08-14T02:40:53.077Z,996.95
2018-08-14T02:41:53.045Z,996.85
2018-08-14T02:42:53.021Z,996.96
2018-08-14T02:43:52.999Z,996.98
2018-08-14T02:44:52.968Z,996.93
2018-08-14T02:45:52.942Z,996.91
2018-08-14T02:46:52.916Z,996.95
2018-08-14T02:47:52.887Z,997.01
2018-08-14T02:48:52.873Z,996.94
2018-08-14T02:49:52.837Z,996.95
2018-08-14T02:50:52.818Z,996.97
2018-08-14T02:51:52.791Z,996.97
2018-08-14T02:52:52.760Z,997.00
2018-08-14T02:53:52.741Z,996.99
2018-08-14T02:54:52.706Z,996.98
2018-08-14T02:55:52.683Z,997.00
2018-08-14T02:56:52.661Z,997.00
2018-08-14T02:57:52.629Z,996.94
2018-08-14T02:58:52.611Z,996.98
2018-08-14T02:59:52.576Z,997.06
2018-08-14T03:00:52.564Z,997.03
2018-08-14T03:01:52.529Z,997.01
2018-08-14T03:02:52.505Z,997.03
2018-08-14T03:03:52.480Z,997.06
2018-08-14T03:04:52.458Z,997.05
2018-08-14T03:05:52.470Z,997.04
2018-08-14T03:06:52.397Z,997.05
2018-08-14T03:07:52.381Z,997.16
2018-08-14T03:08:52.358Z,997.07
2018-08-14T03:09:52.321Z,997.09
2018-08-14T03:10:52.303Z,997.12
2018-08-14T03:11:52.272Z,997.14
2018-08-14T03:12:52.251Z,997.11
2018-08-14T03:13:52.221Z,997.06
2018-08-14T03:14:52.202Z,997.10
2018-08-14T03:15:52.168Z,997.08
2018-08-14T03:16:52.147Z,997.11
2018-08-14T03:17:52.117Z,997.12
2018-08-14T03:18:52.097Z,997.11
2018-08-14T03:19:52.069Z,997.09
2018-08-14T03:20:52.046Z,997.10
2018-08-14T03:21:52.020Z,997.16
2018-08-14T03:22:51.998Z,997.14
2018-08-14T03:23:51.965Z,997.12
2018-08-14T03:24:51.945Z,997.11
2018-08-14T03:25:51.910Z,997.20
2018-08-14T03:26:51.891Z,997.10
2018-08-14T03:27:51.870Z,997.10
2018-08-14T03:28:51.838Z,997.15
2018-08-14T03:29:51.813Z,997.15
2018-08-14T03:30:51.781Z,997.13
2018-08-14T03:31:51.766Z,997.27
2018-08-14T03:32:51.730Z,997.19
2018-08-14T03:33:51.712Z,997.23
2018-08-14T03:34:51.678Z,997.18
2018-08-14T03:35:51.661Z,997.21
2018-08-14T03:36:51.629Z,997.21
2018-08-14T03:37:51.601Z,997.26
2018-08-14T03:38:51.584Z,997.22
2018-08-14T03:39:51.554Z,997.28
2018-08-14T03:40:51.525Z,997.23
2018-08-14T03:41:51.671Z,997.27
2018-08-14T03:42:51.472Z,997.28
2018-08-14T03:43:51.448Z,997.26
2018-08-14T03:44:51.421Z,997.27
2018-08-14T03:45:51.399Z,997.29
2018-08-14T03:46:51.377Z,997.28
2018-08-14T03:47:51.342Z,997.30
2018-08-14T03:48:51.326Z,997.26
2018-08-14T03:49:51.292Z,997.31
2018-08-14T03:50:51.271Z,997.31
2018-08-14T03:51:51.242Z,997.29
2018-08-14T03:52:51.219Z,997.30
2018-08-14T03:53:51.195Z,997.30
2018-08-14T03:54:51.168Z,997.34
2018-08-14T03:55:51.142Z,997.36
2018-08-14T03:56:51.122Z,997.32
2018-08-14T03:57:51.131Z,997.34
2018-08-14T03:58:51.137Z,997.35
2018-08-14T03:59:51.119Z,997.36
2018-08-14T04:00:51.021Z,997.50
2018-08-14T04:01:50.984Z,997.45
2018-08-14T04:02:50.962Z,997.39
2018-08-14T04:03:50.934Z,997.44
2018-08-14T04:04:50.913Z,997.38
2018-08-14T04:05:50.885Z,997.40
2018-08-14T04:06:50.858Z,997.44
2018-08-14T04:07:50.837Z,997.45
2018-08-14T04:08:50.805Z,997.49
2018-08-14T04:09:50.820Z,997.43
2018-08-14T04:10:50.792Z,997.41
2018-08-14T04:11:50.791Z,997.48
2018-08-14T04:12:50.709Z,997.40
2018-08-14T04:13:50.677Z,997.45
2018-08-14T04:14:50.653Z,997.45
2018-08-14T04:15:50.625Z,997.51
2018-08-14T04:16:50.606Z,997.44
2018-08-14T04:17:50.575Z,997.44
2018-08-14T04:18:50.548Z,997.47
2018-08-14T04:19:50.524Z,997.42
2018-08-14T04:20:50.504Z,997.48
2018-08-14T04:21:50.471Z,997.46
2018-08-14T04:22:50.451Z,997.49
2018-08-14T04:23:50.429Z,997.49
2018-08-14T04:24:50.391Z,997.52
2018-08-14T04:25:50.374Z,997.53
2018-08-14T04:26:50.433Z,997.54
2018-08-14T04:27:50.323Z,997.54
2018-08-14T04:28:50.294Z,997.53
2018-08-14T04:29:50.267Z,997.57
2018-08-14T04:30:50.246Z,997.53
2018-08-14T04:31:50.213Z,997.58
2018-08-14T04:32:50.194Z,997.61
2018-08-14T04:33:50.163Z,997.58
2018-08-14T04:34:50.141Z,997.55
2018-08-14T04:35:50.125Z,997.59
2018-08-14T04:36:50.094Z,997.58
2018-08-14T04:37:50.060Z,997.56
2018-08-14T04:38:50.043Z,997.58
2018-08-14T04:39:50.006Z,997.60
2018-08-14T04:40:49.989Z,997.64
2018-08-14T04:41:49.955Z,997.64
2018-08-14T04:42:49.946Z,997.73
2018-08-14T04:43:49.905Z,997.65
2018-08-14T04:44:49.977Z,997.65
2018-08-14T04:45:49.868Z,997.65
2018-08-14T04:46:49.828Z,997.67
2018-08-14T04:47:49.804Z,997.64
2018-08-14T04:48:49.781Z,997.68
2018-08-14T04:49:49.754Z,997.64
2018-08-14T04:50:49.726Z,997.76
2018-08-14T04:51:49.699Z,997.63
2018-08-14T04:52:49.683Z,997.69
2018-08-14T04:53:49.694Z,997.65
2018-08-14T04:54:49.640Z,997.71
2018-08-14T04:55:49.599Z,997.67
2018-08-14T04:56:49.577Z,997.71
2018-08-14T04:57:49.556Z,997.73
2018-08-14T04:58:49.523Z,997.75
2018-08-14T04:59:49.499Z,997.77
2018-08-14T05:00:49.471Z,997.79
2018-08-14T05:01:49.449Z,997.78
2018-08-14T05:02:49.424Z,997.79
2018-08-14T05:03:49.395Z,997.85
2018-08-14T05:04:49.366Z,997.91
2018-08-14T05:05:49.344Z,997.87
2018-08-14T05:06:49.316Z,997.90
2018-08-14T05:07:49.295Z,997.92
2018-08-14T05:08:49.305Z,997.93
2018-08-14T05:09:49.234Z,997.94
2018-08-14T05:10:49.217Z,997.94
2018-08-14T05:11:49.185Z,997.96
2018-08-14T05:12:49.167Z,997.96
2018-08-14T05:13:49.138Z,997.97
2018-08-14T05:14:49.108Z,998.02
2018-08-14T05:15:49.087Z,998.00
2018-08-14T05:16:49.063Z,998.04
2018-08-14T05:17:49.041Z,998.04
2018-08-14T05:18:49.001Z,998.11
2018-08-14T05:19:56.166Z,998.09
2018-08-14T05:21:41.924Z,998.05
2018-08-14T05:22:41.788Z,998.02
2018-08-14T05:24:34.660Z,998.20
2018-08-14T05:25:34.603Z,998.09
2018-08-14T05:27:27.453Z,998.12
2018-08-14T05:28:27.417Z,998.10
2018-08-14T05:30:20.291Z,998.15
2018-08-14T05:31:20.237Z,998.16
2018-08-14T05:33:13.099Z,998.19
2018-08-14T05:34:13.042Z,998.17
2018-08-14T05:36:05.907Z,998.21
2018-08-14T05:37:05.860Z,998.17
2018-08-14T05:38:58.691Z,998.34
2018-08-14T05:39:58.663Z,998.25
2018-08-14T05:41:51.670Z,998.25
2018-08-14T05:42:51.466Z,998.31
2018-08-14T05:44:44.334Z,998.22
2018-08-14T05:45:44.269Z,998.27
2018-08-14T05:47:37.104Z,998.35
2018-08-14T05:48:37.082Z,998.23
2018-08-14T05:50:29.941Z,998.27
2018-08-14T05:51:29.884Z,998.32
2018-08-14T05:53:22.719Z,998.24
2018-08-14T05:54:22.693Z,998.31
2018-08-14T05:56:15.560Z,998.28
2018-08-14T05:57:15.513Z,998.37
2018-08-14T05:59:08.379Z,998.35
2018-08-14T06:00:08.319Z,998.31
2018-08-14T06:02:01.165Z,998.38
2018-08-14T06:03:01.149Z,998.37
2018-08-14T06:04:54.009Z,998.33
2018-08-14T06:05:53.944Z,998.41
2018-08-14T06:07:46.786Z,998.40
2018-08-14T06:08:46.758Z,998.41
2018-08-14T06:10:39.617Z,998.40
2018-08-14T06:11:39.565Z,998.36
2018-08-14T06:13:32.412Z,998.40
2018-08-14T06:14:32.376Z,998.42
2018-08-14T06:16:25.246Z,998.42
2018-08-14T06:17:25.190Z,998.47
2018-08-14T06:19:18.044Z,998.48
2018-08-14T06:20:18.009Z,998.50
2018-08-14T06:22:10.854Z,998.54
2018-08-14T06:23:10.803Z,998.55
2018-08-14T06:25:03.701Z,998.61
2018-08-14T06:26:03.608Z,998.51
2018-08-14T06:27:56.493Z,998.58
2018-08-14T06:28:56.428Z,998.58
2018-08-14T06:29:56.386Z,998.58
2018-08-14T06:30:56.365Z,998.59
2018-08-14T06:31:56.333Z,998.65
2018-08-14T06:32:56.315Z,998.64
2018-08-14T06:33:56.367Z,998.70
2018-08-14T06:34:56.264Z,998.68
2018-08-14T06:35:56.228Z,998.61
2018-08-14T06:36:56.211Z,998.72
2018-08-14T06:37:56.182Z,998.64
2018-08-14T06:38:56.158Z,998.72
2018-08-14T06:39:56.125Z,998.74
2018-08-14T06:40:56.105Z,998.88
2018-08-14T06:41:56.075Z,998.75
2018-08-14T06:42:56.057Z,998.85
2018-08-14T06:43:56.035Z,998.83
2018-08-14T06:44:55.998Z,998.84
2018-08-14T06:45:56.002Z,998.89
2018-08-14T06:46:55.952Z,998.89
2018-08-14T06:47:55.919Z,998.88
2018-08-14T06:48:55.921Z,998.92
2018-08-14T06:49:55.877Z,998.89
2018-08-14T06:50:55.846Z,998.87
2018-08-14T06:51:55.817Z,998.93
2018-08-14T06:52:55.791Z,998.93
2018-08-14T06:53:55.766Z,998.95
2018-08-14T06:54:55.757Z,998.94
2018-08-14T06:55:55.714Z,999.02
2018-08-14T06:56:55.692Z,999.11
2018-08-14T06:57:55.665Z,999.03
2018-08-14T06:58:55.642Z,998.97
2018-08-14T06:59:55.614Z,999.03
2018-08-14T07:00:55.588Z,999.06
2018-08-14T07:01:55.560Z,999.06
2018-08-14T07:02:55.553Z,999.07
2018-08-14T07:03:55.507Z,999.09
2018-08-14T07:04:55.489Z,999.16
2018-08-14T07:05:55.454Z,999.20
2018-08-14T07:06:55.435Z,999.21
2018-08-14T07:07:55.402Z,999.21
2018-08-14T07:08:55.423Z,999.19
2018-08-14T07:09:55.356Z,999.28
2018-08-14T07:10:55.331Z,999.17
2018-08-14T07:11:55.298Z,999.33
2018-08-14T07:12:55.277Z,999.28
2018-08-14T07:13:55.253Z,999.27
2018-08-14T07:14:55.226Z,999.25
2018-08-14T07:15:55.204Z,999.20
2018-08-14T07:16:55.170Z,999.22
2018-08-14T07:17:55.150Z,999.35
2018-08-14T07:18:55.121Z,999.27
2018-08-14T07:19:55.096Z,999.30
2018-08-14T07:20:55.065Z,999.37
2018-08-14T07:21:55.048Z,999.32
2018-08-14T07:22:55.024Z,999.40
2018-08-14T07:23:54.999Z,999.33
2018-08-14T07:24:54.970Z,999.39
2018-08-14T07:25:54.943Z,999.25
2018-08-14T07:26:54.912Z,999.33
2018-08-14T07:27:54.893Z,999.37
2018-08-14T07:28:54.866Z,999.35
2018-08-14T07:29:54.840Z,999.36
2018-08-14T07:30:54.810Z,999.35
2018-08-14T07:31:54.803Z,999.39
2018-08-14T07:32:54.761Z,999.38
2018-08-14T07:33:54.734Z,999.38
2018-08-14T07:34:54.712Z,999.35
2018-08-14T07:35:54.684Z,999.37
2018-08-14T07:36:54.670Z,999.40
2018-08-14T07:37:54.644Z,999.41
2018-08-14T07:38:54.610Z,999.42
2018-08-14T07:39:54.576Z,999.46
2018-08-14T07:40:54.592Z,999.51
2018-08-14T07:41:54.533Z,999.47
2018-08-14T07:42:54.502Z,999.52
2018-08-14T07:43:54.473Z,999.57
2018-08-14T07:44:54.448Z,999.58
2018-08-14T07:45:54.430Z,999.65
2018-08-14T07:46:54.400Z,999.63
2018-08-14T07:47:54.373Z,999.64
2018-08-14T07:48:54.351Z,999.66
2018-08-14T07:49:54.326Z,999.67
2018-08-14T07:50:54.347Z,999.69
2018-08-14T07:51:54.395Z,999.67
2018-08-14T07:52:54.243Z,999.68
2018-08-14T07:53:54.228Z,999.73
2018-08-14T07:54:54.197Z,999.74
2018-08-14T07:55:54.169Z,999.78
2018-08-14T07:56:54.139Z,999.78
2018-08-14T07:57:54.183Z,999.80
2018-08-14T07:58:54.093Z,999.78
2018-08-14T07:59:54.070Z,999.78
2018-08-14T08:00:54.042Z,999.82
2018-08-14T08:01:54.019Z,999.83
2018-08-14T08:02:54.000Z,999.80
2018-08-14T08:03:53.972Z,999.87
2018-08-14T08:04:53.941Z,999.81
2018-08-14T08:05:53.929Z,999.85
2018-08-14T08:06:53.889Z,999.93
2018-08-14T08:07:53.863Z,999.85
2018-08-14T08:08:53.845Z,999.87
2018-08-14T08:09:53.809Z,999.82
2018-08-14T08:10:53.792Z,999.99
2018-08-14T08:11:53.769Z,999.94
2018-08-14T08:12:53.735Z,999.93
2018-08-14T08:13:53.709Z,999.87
2018-08-14T08:14:53.687Z,999.88
2018-08-14T08:15:53.670Z,999.90
2018-08-14T08:16:53.636Z,999.94
2018-08-14T08:17:53.613Z,1000.09
2018-08-14T08:18:53.582Z,999.90
2018-08-14T08:19:53.561Z,1000.08
2018-08-14T08:20:53.534Z,999.93
2018-08-14T08:21:53.509Z,999.96
2018-08-14T08:22:53.479Z,1000.14
2018-08-14T08:23:53.457Z,999.99
2018-08-14T08:24:53.428Z,999.99
2018-08-14T08:25:53.411Z,999.99
2018-08-14T08:26:53.438Z,1000.03
2018-08-14T08:27:53.359Z,1000.10
2018-08-14T08:28:53.333Z,1000.04
2018-08-14T08:29:53.309Z,1000.02
2018-08-14T08:30:53.273Z,1000.08
2018-08-14T08:31:53.259Z,1000.05
2018-08-14T08:32:53.231Z,999.98
2018-08-14T08:33:53.196Z,1000.03
2018-08-14T08:34:53.176Z,999.96
2018-08-14T08:35:53.147Z,1000.01
2018-08-14T08:36:53.122Z,1000.03
2018-08-14T08:37:53.104Z,1000.04
2018-08-14T08:38:53.074Z,1000.12
2018-08-14T08:39:53.048Z,1000.17
2018-08-14T08:40:53.026Z,1000.10
2018-08-14T08:41:52.997Z,1000.11
2018-08-14T08:42:52.971Z,1000.13
2018-08-14T08:43:52.949Z,1000.10
2018-08-14T08:44:52.918Z,1000.12
2018-08-14T08:45:52.890Z,1000.11
2018-08-14T08:46:52.873Z,1000.18
2018-08-14T08:47:52.843Z,1000.14
2018-08-14T08:48:52.847Z,1000.13
2018-08-14T08:49:52.797Z,1000.25
2018-08-14T08:50:52.769Z,1000.16
2018-08-14T08:51:52.748Z,1000.25
2018-08-14T08:52:52.761Z,1000.21
2018-08-14T08:53:52.718Z,1000.29
2018-08-14T08:54:52.668Z,1000.23
2018-08-14T08:55:52.645Z,1000.25
2018-08-14T08:56:52.614Z,1000.24
2018-08-14T08:57:52.595Z,1000.26
2018-08-14T08:58:52.568Z,1000.24
2018-08-14T08:59:52.538Z,1000.23
2018-08-14T09:00:52.515Z,1000.30
2018-08-14T09:01:52.495Z,1000.35
2018-08-14T09:02:52.460Z,1000.28
2018-08-14T09:03:52.465Z,1000.26
2018-08-14T09:04:52.411Z,1000.32
2018-08-14T09:05:52.387Z,1000.26
2018-08-14T09:06:52.364Z,1000.31
2018-08-14T09:07:52.332Z,1000.33
2018-08-14T09:08:52.310Z,1000.40
2018-08-14T09:09:52.283Z,1000.29
2018-08-14T09:10:52.260Z,1000.34
2018-08-14T09:11:52.232Z,1000.29
2018-08-14T09:12:52.216Z,1000.35
2018-08-14T09:13:52.181Z,1000.34
2018-08-14T09:14:52.162Z,1000.37
2018-08-14T09:15:52.128Z,1000.36
2018-08-14T09:16:52.112Z,1000.41
2018-08-14T09:17:52.079Z,1000.41
2018-08-14T09:18:52.061Z,1000.51
2018-08-14T09:19:52.027Z,1000.44
2018-08-14T09:20:52.009Z,1000.52
2018-08-14T09:21:51.979Z,1000.40
2018-08-14T09:22:51.956Z,1000.44
2018-08-14T09:23:51.928Z,1000.49
2018-08-14T09:24:51.914Z,1000.46
2018-08-14T09:25:51.875Z,1000.51
2018-08-14T09:26:51.858Z,1000.47
2018-08-14T09:27:51.826Z,1000.47
2018-08-14T09:28:51.804Z,1000.56
2018-08-14T09:29:51.778Z,1000.52
2018-08-14T09:30:51.753Z,1000.58
2018-08-14T09:31:51.732Z,1000.56
2018-08-14T09:32:51.704Z,1000.60
2018-08-14T09:33:51.677Z,1000.47
2018-08-14T09:34:51.674Z,1000.47
2018-08-14T09:35:51.624Z,1000.47
2018-08-14T09:36:51.627Z,1000.54
2018-08-14T09:37:51.574Z,1000.56
2018-08-14T09:38:51.593Z,1000.54
2018-08-14T09:39:51.521Z,1000.53
2018-08-14T09:40:51.497Z,1000.57
2018-08-14T09:41:51.516Z,1000.60
2018-08-14T09:42:51.469Z,1000.63
2018-08-14T09:43:51.454Z,1000.61
2018-08-14T09:44:51.403Z,1000.60
2018-08-14T09:45:51.371Z,1000.60
2018-08-14T09:46:51.353Z,1000.61
2018-08-14T09:47:51.326Z,1000.60
2018-08-14T09:48:51.295Z,1000.64
2018-08-14T09:49:51.276Z,1000.65
2018-08-14T09:50:51.253Z,1000.68
2018-08-14T09:51:51.218Z,1000.62
2018-08-14T09:52:51.194Z,1000.69
2018-08-14T09:53:51.218Z,1000.63
2018-08-14T09:54:51.148Z,1000.72
2018-08-14T09:55:51.122Z,1000.65
2018-08-14T09:56:51.102Z,1000.62
2018-08-14T09:57:51.069Z,1000.61
2018-08-14T09:58:51.044Z,1000.64
2018-08-14T09:59:51.023Z,1000.66
2018-08-14T10:00:50.996Z,1000.69
2018-08-14T10:01:50.976Z,1000.78
2018-08-14T10:02:50.948Z,1000.67
2018-08-14T10:03:50.923Z,1000.69
2018-08-14T10:04:50.933Z,1000.68
2018-08-14T10:05:50.870Z,1000.72
2018-08-14T10:06:50.842Z,1000.75
2018-08-14T10:07:50.819Z,1000.73
2018-08-14T10:08:50.867Z,1000.78
2018-08-14T10:09:50.769Z,1000.81
2018-08-14T10:10:50.753Z,1000.86
2018-08-14T10:11:50.717Z,1000.88
2018-08-14T10:12:50.697Z,1000.83
2018-08-14T10:13:50.669Z,1000.79
2018-08-14T10:14:50.712Z,1000.83
2018-08-14T10:15:50.619Z,1000.89
2018-08-14T10:16:50.599Z,1000.87
2018-08-14T10:17:50.567Z,1000.90
2018-08-14T10:18:50.548Z,1000.92
2018-08-14T10:19:50.560Z,1000.91
2018-08-14T10:20:50.528Z,1000.95
2018-08-14T10:21:50.476Z,1000.99
2018-08-14T10:22:50.441Z,1000.93
2018-08-14T10:23:50.421Z,1001.09
2018-08-14T10:24:50.431Z,1001.00
2018-08-14T10:25:50.375Z,1000.96
2018-08-14T10:26:50.418Z,1000.99
2018-08-14T10:27:50.323Z,1000.93
2018-08-14T10:28:50.341Z,1000.98
2018-08-14T10:29:50.265Z,1000.98
2018-08-14T10:30:50.248Z,1000.89
2018-08-14T10:31:50.219Z,1001.00
2018-08-14T10:32:50.196Z,1000.91
2018-08-14T10:33:50.168Z,1000.91
2018-08-14T10:34:50.148Z,1001.12
2018-08-14T10:35:50.117Z,1000.94
2018-08-14T10:36:50.095Z,1000.92
2018-08-14T10:37:50.069Z,1000.91
2018-08-14T10:38:50.040Z,1000.93
2018-08-14T10:39:50.028Z,1000.89
2018-08-14T10:40:49.996Z,1000.92
2018-08-14T10:41:49.966Z,1000.94
2018-08-14T10:42:49.948Z,1000.92
2018-08-14T10:43:49.921Z,1000.91
2018-08-14T10:44:49.902Z,1001.03
2018-08-14T10:45:49.886Z,1000.95
2018-08-14T10:46:49.849Z,1001.06
2018-08-14T10:47:49.819Z,1001.01
2018-08-14T10:48:49.797Z,1000.97
2018-08-14T10:49:49.769Z,1000.98
2018-08-14T10:50:49.753Z,1000.95
2018-08-14T10:51:49.744Z,1000.98
2018-08-14T10:52:49.700Z,1001.04
2018-08-14T10:53:49.670Z,1001.04
2018-08-14T10:54:49.650Z,1001.06
2018-08-14T10:55:49.619Z,1001.03
2018-08-14T10:56:49.593Z,1001.06
2018-08-14T10:57:49.568Z,1001.20
2018-08-14T10:58:49.664Z,1001.07
2018-08-14T10:59:49.519Z,1001.08
2018-08-14T11:00:49.500Z,1001.08
2018-08-14T11:01:49.475Z,1001.02
2018-08-14T11:02:49.460Z,1001.06
2018-08-14T11:03:49.427Z,1001.05
2018-08-14T11:04:49.449Z,1001.13
2018-08-14T11:05:49.373Z,1001.02
2018-08-14T11:06:49.346Z,1001.01
2018-08-14T11:07:49.323Z,1001.02
2018-08-14T11:08:49.301Z,1001.04
2018-08-14T11:09:49.293Z,1001.05
2018-08-14T11:10:49.343Z,1001.10
2018-08-14T11:11:49.218Z,1001.04
2018-08-14T11:12:49.199Z,1001.18
2018-08-14T11:13:49.172Z,1001.06
2018-08-14T11:14:49.149Z,1001.09
2018-08-14T11:15:49.122Z,1001.07
2018-08-14T11:16:49.107Z,1001.16
2018-08-14T11:17:49.072Z,1001.11
2018-08-14T11:18:49.054Z,1001.32
2018-08-14T11:19:49.730Z,1001.11
2018-08-14T11:20:49.002Z,1001.04
2018-08-14T11:21:48.973Z,1001.07
2018-08-14T11:22:48.958Z,1001.04
2018-08-14T11:23:48.923Z,1001.15
2018-08-14T11:24:48.973Z,1001.18
2018-08-14T11:25:48.875Z,1001.05
2018-08-14T11:26:48.847Z,1001.00
2018-08-14T11:27:48.826Z,1001.06
2018-08-14T11:28:48.800Z,1001.17
2018-08-14T11:29:48.785Z,1001.04
2018-08-14T11:30:48.752Z,1001.06
2018-08-14T11:31:48.744Z,1001.12
2018-08-14T11:32:48.702Z,1001.16
2018-08-14T11:33:48.684Z,1001.19
2018-08-14T11:34:48.675Z,1001.15
2018-08-14T11:35:48.628Z,1001.24
2018-08-14T11:36:48.603Z,1001.19
2018-08-14T11:37:48.579Z,1001.18
2018-08-14T11:38:48.694Z,1001.22
2018-08-14T11:39:48.544Z,1001.14
2018-08-14T11:40:48.506Z,1001.14
2018-08-14T11:41:48.481Z,1001.36
2018-08-14T11:42:48.454Z,1001.18
2018-08-14T11:43:48.431Z,1001.18
2018-08-14T11:44:48.406Z,1001.24
2018-08-14T11:45:48.386Z,1001.30
2018-08-14T11:46:48.365Z,1001.24
2018-08-14T11:47:48.330Z,1001.22
2018-08-14T11:48:48.312Z,1001.29
2018-08-14T11:49:48.279Z,1001.26
2018-08-14T11:50:48.287Z,1001.34
2018-08-14T11:51:48.240Z,1001.44
2018-08-14T11:52:48.220Z,1001.22
2018-08-14T11:53:48.183Z,1001.34
2018-08-14T11:54:48.159Z,1001.27
2018-08-14T11:55:48.140Z,1001.22
2018-08-14T11:56:48.111Z,1001.22
2018-08-14T11:57:48.091Z,1001.27
2018-08-14T11:58:48.065Z,1001.39
2018-08-14T11:59:48.053Z,1001.31
2018-08-14T12:00:48.020Z,1001.34
2018-08-14T12:01:47.983Z,1001.41
2018-08-14T12:02:47.970Z,1001.59
2018-08-14T12:03:47.940Z,1001.42
2018-08-14T12:04:47.909Z,1001.40
2018-08-14T12:05:47.894Z,1001.40
2018-08-14T12:06:47.911Z,1001.60
2018-08-14T12:07:47.846Z,1001.50
2018-08-14T12:08:47.813Z,1001.34
2018-08-14T12:09:47.792Z,1001.38
2018-08-14T12:10:47.786Z,1001.34
2018-08-14T12:11:47.758Z,1001.39
2018-08-14T12:12:47.749Z,1001.39
2018-08-14T12:13:47.690Z,1001.53
2018-08-14T12:14:47.666Z,1001.36
2018-08-14T12:15:47.646Z,1001.36
2018-08-14T12:16:47.619Z,1001.51
2018-08-14T12:17:47.600Z,1001.53
2018-08-14T12:18:47.566Z,1001.60
2018-08-14T12:19:47.546Z,1001.43
2018-08-14T12:20:47.527Z,1001.39
2018-08-14T12:21:47.493Z,1001.43
2018-08-14T12:22:47.480Z,1001.43
2018-08-14T12:23:47.445Z,1001.45
2018-08-14T12:24:47.425Z,1001.43
2018-08-14T12:25:47.398Z,1001.43
2018-08-14T12:26:47.377Z,1001.40
2018-08-14T12:27:47.376Z,1001.42
2018-08-14T12:28:47.330Z,1001.42
2018-08-14T12:29:47.308Z,1001.28
2018-08-14T12:30:47.282Z,1001.40
2018-08-14T12:31:47.252Z,1001.33
2018-08-14T12:32:47.235Z,1001.33
2018-08-14T12:33:47.204Z,1001.38
2018-08-14T12:34:47.186Z,1001.39
2018-08-14T12:35:47.158Z,1001.39
2018-08-14T12:36:47.132Z,1001.38
2018-08-14T12:37:47.113Z,1001.50
2018-08-14T12:38:47.090Z,1001.50
2018-08-14T12:39:47.079Z,1001.56
2018-08-14T12:40:47.033Z,1001.44
2018-08-14T12:41:47.013Z,1001.42
2018-08-14T12:42:46.989Z,1001.43
2018-08-14T12:43:46.968Z,1001.55
2018-08-14T12:44:46.936Z,1001.50
2018-08-14T12:45:46.931Z,1001.60
2018-08-14T12:46:46.893Z,1001.55
2018-08-14T12:47:46.864Z,1001.71
2018-08-14T12:48:46.839Z,1001.67
2018-08-14T12:49:46.828Z,1001.59
2018-08-14T12:50:46.795Z,1001.60
2018-08-14T12:51:46.772Z,1001.63
2018-08-14T12:52:46.751Z,1001.65
2018-08-14T12:53:46.721Z,1001.72
2018-08-14T12:54:46.699Z,1001.50
2018-08-14T12:55:46.711Z,1001.42
2018-08-14T12:56:46.649Z,1001.52
2018-08-14T12:57:46.621Z,1001.49